sensor_id;sensor_type;location;lat;lon;timestamp;temperature;humidity
10905;DHT22;5505;51.450;9.254;2023-08-21T00:02:30;20.30;99.90
10905;DHT22;5505;51.450;9.254;2023-08-21T00:05:17;20.30;99.90
10905;DHT22;5505;51.450;9.254;2023-08-21T00:08:05;20.20;99.90
10905;DHT22;5505;51.450;9.254;2023-08-21T00:10:52;20.20;99.90
10905;DHT22;5505;51.450;9.254;2023-08-21T00:13:39;20.20;99.90
10905;DHT22;5505;51.450;9.254;2023-08-21T00:16:28;20.10;99.90
10905;DHT22;5505;51.450;9.254;2023-08-21T00:19:15;20.10;99.90
10905;DHT22;5505;51.450;9.254;2023-08-21T00:22:02;20.10;99.90
10905;DHT22;5505;51.450;9.254;2023-08-21T00:24:50;20.00;99.90
10905;DHT22;5505;51.450;9.254;2023-08-21T00:27:37;19.90;99.90
10905;DHT22;5505;51.450;9.254;2023-08-21T00:30:24;19.90;99.90
10905;DHT22;5505;51.450;9.254;2023-08-21T00:33:10;19.80;99.90
10905;DHT22;5505;51.450;9.254;2023-08-21T00:35:57;20.70;99.90
10905;DHT22;5505;51.450;9.254;2023-08-21T00:38:44;19.80;99.90
10905;DHT22;5505;51.450;9.254;2023-08-21T00:41:32;19.80;99.90
10905;DHT22;5505;51.450;9.254;2023-08-21T00:44:19;19.80;99.90
10905;DHT22;5505;51.450;9.254;2023-08-21T00:47:06;19.80;99.90
10905;DHT22;5505;51.450;9.254;2023-08-21T00:49:53;19.90;99.90
10905;DHT22;5505;51.450;9.254;2023-08-21T00:52:40;19.80;99.90
10905;DHT22;5505;51.450;9.254;2023-08-21T00:55:29;19.80;99.90
10905;DHT22;5505;51.450;9.254;2023-08-21T00:58:18;19.70;99.90
10905;DHT22;5505;51.450;9.254;2023-08-21T01:01:04;19.70;99.90
10905;DHT22;5505;51.450;9.254;2023-08-21T01:03:51;19.70;99.90
10905;DHT22;5505;51.450;9.254;2023-08-21T01:06:38;19.70;99.90
10905;DHT22;5505;51.450;9.254;2023-08-21T01:09:27;19.70;99.90
10905;DHT22;5505;51.450;9.254;2023-08-21T01:12:23;19.60;99.90
10905;DHT22;5505;51.450;9.254;2023-08-21T01:15:12;19.70;99.90
10905;DHT22;5505;51.450;9.254;2023-08-21T01:18:00;19.70;99.90
10905;DHT22;5505;51.450;9.254;2023-08-21T01:20:47;19.70;99.90
10905;DHT22;5505;51.450;9.254;2023-08-21T01:23:36;19.60;99.90
10905;DHT22;5505;51.450;9.254;2023-08-21T01:26:23;19.50;99.90
10905;DHT22;5505;51.450;9.254;2023-08-21T01:29:09;19.50;99.90
10905;DHT22;5505;51.450;9.254;2023-08-21T01:32:01;19.30;99.90
10905;DHT22;5505;51.450;9.254;2023-08-21T01:34:49;19.30;99.90
10905;DHT22;5505;51.450;9.254;2023-08-21T01:37:38;19.30;99.90
10905;DHT22;5505;51.450;9.254;2023-08-21T01:40:26;19.30;99.90
10905;DHT22;5505;51.450;9.254;2023-08-21T01:43:13;19.30;99.90
10905;DHT22;5505;51.450;9.254;2023-08-21T01:46:01;19.40;99.90
10905;DHT22;5505;51.450;9.254;2023-08-21T01:48:47;19.30;99.90
10905;DHT22;5505;51.450;9.254;2023-08-21T01:51:34;19.30;99.90
10905;DHT22;5505;51.450;9.254;2023-08-21T01:54:21;19.20;99.90
10905;DHT22;5505;51.450;9.254;2023-08-21T01:57:09;19.20;99.90
10905;DHT22;5505;51.450;9.254;2023-08-21T01:59:56;19.20;99.90
10905;DHT22;5505;51.450;9.254;2023-08-21T02:02:43;19.10;99.90
10905;DHT22;5505;51.450;9.254;2023-08-21T02:05:29;19.00;99.90
10905;DHT22;5505;51.450;9.254;2023-08-21T02:08:18;19.00;99.90
10905;DHT22;5505;51.450;9.254;2023-08-21T02:11:05;18.90;99.90
10905;DHT22;5505;51.450;9.254;2023-08-21T02:13:53;19.00;99.90
10905;DHT22;5505;51.450;9.254;2023-08-21T02:16:40;18.90;99.90
10905;DHT22;5505;51.450;9.254;2023-08-21T02:19:26;18.90;99.90
10905;DHT22;5505;51.450;9.254;2023-08-21T02:22:13;18.90;99.90
10905;DHT22;5505;51.450;9.254;2023-08-21T02:25:00;18.80;99.90
10905;DHT22;5505;51.450;9.254;2023-08-21T02:27:47;18.70;99.90
10905;DHT22;5505;51.450;9.254;2023-08-21T02:30:35;18.60;99.90
10905;DHT22;5505;51.450;9.254;2023-08-21T02:33:21;18.60;99.90
10905;DHT22;5505;51.450;9.254;2023-08-21T02:36:08;18.60;99.90
10905;DHT22;5505;51.450;9.254;2023-08-21T02:38:55;18.50;99.90
10905;DHT22;5505;51.450;9.254;2023-08-21T02:41:42;18.40;99.90
10905;DHT22;5505;51.450;9.254;2023-08-21T02:44:29;18.30;99.90
10905;DHT22;5505;51.450;9.254;2023-08-21T02:47:17;18.20;99.90
10905;DHT22;5505;51.450;9.254;2023-08-21T02:50:04;18.20;99.90
10905;DHT22;5505;51.450;9.254;2023-08-21T02:52:51;18.10;99.90
10905;DHT22;5505;51.450;9.254;2023-08-21T02:55:38;18.00;99.90
10905;DHT22;5505;51.450;9.254;2023-08-21T02:58:25;17.90;99.90
10905;DHT22;5505;51.450;9.254;2023-08-21T03:01:11;17.90;99.90
10905;DHT22;5505;51.450;9.254;2023-08-21T03:04:00;17.80;99.90
10905;DHT22;5505;51.450;9.254;2023-08-21T03:06:46;17.80;99.90
10905;DHT22;5505;51.450;9.254;2023-08-21T03:09:33;17.80;99.90
10905;DHT22;5505;51.450;9.254;2023-08-21T03:12:20;17.80;99.90
10905;DHT22;5505;51.450;9.254;2023-08-21T03:15:07;17.80;99.90
10905;DHT22;5505;51.450;9.254;2023-08-21T03:17:55;17.80;99.90
10905;DHT22;5505;51.450;9.254;2023-08-21T03:20:45;17.80;99.90
10905;DHT22;5505;51.450;9.254;2023-08-21T03:23:32;18.00;99.90
10905;DHT22;5505;51.450;9.254;2023-08-21T03:26:19;17.90;99.90
10905;DHT22;5505;51.450;9.254;2023-08-21T03:29:06;17.80;99.90
10905;DHT22;5505;51.450;9.254;2023-08-21T03:31:53;17.70;99.90
10905;DHT22;5505;51.450;9.254;2023-08-21T03:34:40;17.70;99.90
10905;DHT22;5505;51.450;9.254;2023-08-21T03:37:28;17.60;99.90
10905;DHT22;5505;51.450;9.254;2023-08-21T03:40:14;17.60;99.90
10905;DHT22;5505;51.450;9.254;2023-08-21T03:43:01;17.60;99.90
10905;DHT22;5505;51.450;9.254;2023-08-21T03:45:48;17.50;99.90
10905;DHT22;5505;51.450;9.254;2023-08-21T03:48:35;17.50;99.90
10905;DHT22;5505;51.450;9.254;2023-08-21T03:51:22;17.50;99.90
10905;DHT22;5505;51.450;9.254;2023-08-21T03:54:10;17.50;99.90
10905;DHT22;5505;51.450;9.254;2023-08-21T03:56:57;17.40;99.90
10905;DHT22;5505;51.450;9.254;2023-08-21T03:59:44;17.40;99.90
10905;DHT22;5505;51.450;9.254;2023-08-21T04:02:30;17.40;99.90
10905;DHT22;5505;51.450;9.254;2023-08-21T04:05:17;17.20;99.90
10905;DHT22;5505;51.450;9.254;2023-08-21T04:08:05;17.10;99.90
10905;DHT22;5505;51.450;9.254;2023-08-21T04:10:53;17.20;99.90
10905;DHT22;5505;51.450;9.254;2023-08-21T04:13:44;17.20;99.90
10905;DHT22;5505;51.450;9.254;2023-08-21T04:16:31;17.10;99.90
10905;DHT22;5505;51.450;9.254;2023-08-21T04:19:18;17.00;99.90
10905;DHT22;5505;51.450;9.254;2023-08-21T04:22:04;17.00;99.90
10905;DHT22;5505;51.450;9.254;2023-08-21T04:24:51;17.10;99.90
10905;DHT22;5505;51.450;9.254;2023-08-21T04:27:39;17.10;99.90
10905;DHT22;5505;51.450;9.254;2023-08-21T04:30:26;17.10;99.90
10905;DHT22;5505;51.450;9.254;2023-08-21T04:33:13;17.10;99.90
10905;DHT22;5505;51.450;9.254;2023-08-21T04:35:59;17.10;99.90
10905;DHT22;5505;51.450;9.254;2023-08-21T04:38:46;17.10;99.90
10905;DHT22;5505;51.450;9.254;2023-08-21T04:41:33;17.90;99.90
10905;DHT22;5505;51.450;9.254;2023-08-21T04:44:21;17.10;99.90
10905;DHT22;5505;51.450;9.254;2023-08-21T04:47:23;17.20;99.90
10905;DHT22;5505;51.450;9.254;2023-08-21T04:50:12;17.30;99.90
10905;DHT22;5505;51.450;9.254;2023-08-21T04:52:58;17.30;99.90
10905;DHT22;5505;51.450;9.254;2023-08-21T04:55:45;17.40;99.90
10905;DHT22;5505;51.450;9.254;2023-08-21T04:58:32;17.40;99.90
10905;DHT22;5505;51.450;9.254;2023-08-21T05:01:20;17.40;99.90
10905;DHT22;5505;51.450;9.254;2023-08-21T05:04:07;17.50;99.90
10905;DHT22;5505;51.450;9.254;2023-08-21T05:06:54;17.50;99.90
10905;DHT22;5505;51.450;9.254;2023-08-21T05:09:41;17.50;99.90
10905;DHT22;5505;51.450;9.254;2023-08-21T05:12:27;18.30;99.90
10905;DHT22;5505;51.450;9.254;2023-08-21T05:15:14;18.20;99.90
10905;DHT22;5505;51.450;9.254;2023-08-21T05:18:03;17.70;99.90
10905;DHT22;5505;51.450;9.254;2023-08-21T05:20:53;17.70;99.90
10905;DHT22;5505;51.450;9.254;2023-08-21T05:23:40;17.70;99.90
10905;DHT22;5505;51.450;9.254;2023-08-21T05:26:27;17.90;99.90
10905;DHT22;5505;51.450;9.254;2023-08-21T05:29:13;17.90;99.90
10905;DHT22;5505;51.450;9.254;2023-08-21T05:32:01;18.00;99.90
10905;DHT22;5505;51.450;9.254;2023-08-21T05:34:49;18.30;99.90
10905;DHT22;5505;51.450;9.254;2023-08-21T05:37:36;18.00;99.90
10905;DHT22;5505;51.450;9.254;2023-08-21T05:40:22;18.10;99.90
10905;DHT22;5505;51.450;9.254;2023-08-21T05:43:09;16.40;99.90
10905;DHT22;5505;51.450;9.254;2023-08-21T05:45:56;18.20;99.90
10905;DHT22;5505;51.450;9.254;2023-08-21T05:48:43;18.20;99.90
10905;DHT22;5505;51.450;9.254;2023-08-21T05:51:31;18.30;99.90
10905;DHT22;5505;51.450;9.254;2023-08-21T05:54:18;18.30;99.90
10905;DHT22;5505;51.450;9.254;2023-08-21T05:57:07;18.40;99.90
10905;DHT22;5505;51.450;9.254;2023-08-21T05:59:53;18.40;99.90
10905;DHT22;5505;51.450;9.254;2023-08-21T06:02:40;18.40;99.90
10905;DHT22;5505;51.450;9.254;2023-08-21T06:05:28;18.40;99.90
10905;DHT22;5505;51.450;9.254;2023-08-21T06:08:16;18.50;99.90
10905;DHT22;5505;51.450;9.254;2023-08-21T06:11:03;18.60;99.90
10905;DHT22;5505;51.450;9.254;2023-08-21T06:13:50;18.60;99.90
10905;DHT22;5505;51.450;9.254;2023-08-21T06:16:37;18.70;99.90
10905;DHT22;5505;51.450;9.254;2023-08-21T06:19:23;18.80;99.90
10905;DHT22;5505;51.450;9.254;2023-08-21T06:22:10;18.80;99.90
10905;DHT22;5505;51.450;9.254;2023-08-21T06:24:58;18.90;99.90
10905;DHT22;5505;51.450;9.254;2023-08-21T06:27:45;18.90;99.90
10905;DHT22;5505;51.450;9.254;2023-08-21T06:30:32;18.90;99.90
10905;DHT22;5505;51.450;9.254;2023-08-21T06:33:19;19.00;99.90
10905;DHT22;5505;51.450;9.254;2023-08-21T06:36:05;19.00;99.90
10905;DHT22;5505;51.450;9.254;2023-08-21T06:38:52;19.20;99.90
10905;DHT22;5505;51.450;9.254;2023-08-21T06:41:40;19.20;99.90
10905;DHT22;5505;51.450;9.254;2023-08-21T06:44:27;19.30;99.90
10905;DHT22;5505;51.450;9.254;2023-08-21T06:47:14;19.40;99.90
10905;DHT22;5505;51.450;9.254;2023-08-21T06:50:01;19.50;99.90
10905;DHT22;5505;51.450;9.254;2023-08-21T06:52:48;20.50;99.90
10905;DHT22;5505;51.450;9.254;2023-08-21T06:55:34;19.80;99.90
10905;DHT22;5505;51.450;9.254;2023-08-21T06:58:23;19.90;99.90
10905;DHT22;5505;51.450;9.254;2023-08-21T07:01:09;20.00;99.90
10905;DHT22;5505;51.450;9.254;2023-08-21T07:03:56;20.20;99.90
10905;DHT22;5505;51.450;9.254;2023-08-21T07:06:43;20.30;99.90
10905;DHT22;5505;51.450;9.254;2023-08-21T07:09:30;20.50;99.90
10905;DHT22;5505;51.450;9.254;2023-08-21T07:12:16;20.70;99.90
10905;DHT22;5505;51.450;9.254;2023-08-21T07:15:05;20.60;99.90
10905;DHT22;5505;51.450;9.254;2023-08-21T07:17:52;20.60;99.90
10905;DHT22;5505;51.450;9.254;2023-08-21T07:20:41;20.60;99.90
10905;DHT22;5505;51.450;9.254;2023-08-21T07:23:28;20.50;99.90
10905;DHT22;5505;51.450;9.254;2023-08-21T07:26:14;20.70;99.90
10905;DHT22;5505;51.450;9.254;2023-08-21T07:29:01;20.80;99.90
10905;DHT22;5505;51.450;9.254;2023-08-21T07:31:51;21.10;99.90
10905;DHT22;5505;51.450;9.254;2023-08-21T07:34:37;21.20;99.90
10905;DHT22;5505;51.450;9.254;2023-08-21T07:37:24;21.50;99.90
10905;DHT22;5505;51.450;9.254;2023-08-21T07:40:12;22.30;99.90
10905;DHT22;5505;51.450;9.254;2023-08-21T07:42:58;21.70;99.90
10905;DHT22;5505;51.450;9.254;2023-08-21T07:45:45;21.80;99.90
10905;DHT22;5505;51.450;9.254;2023-08-21T07:48:34;21.90;99.90
10905;DHT22;5505;51.450;9.254;2023-08-21T07:51:21;22.10;99.90
10905;DHT22;5505;51.450;9.254;2023-08-21T07:54:08;22.30;99.90
10905;DHT22;5505;51.450;9.254;2023-08-21T07:56:55;22.40;99.90
10905;DHT22;5505;51.450;9.254;2023-08-21T07:59:41;22.40;99.90
10905;DHT22;5505;51.450;9.254;2023-08-21T08:02:28;22.10;99.90
10905;DHT22;5505;51.450;9.254;2023-08-21T08:05:16;22.00;99.90
10905;DHT22;5505;51.450;9.254;2023-08-21T08:08:03;22.10;99.90
10905;DHT22;5505;51.450;9.254;2023-08-21T08:10:50;22.20;99.90
10905;DHT22;5505;51.450;9.254;2023-08-21T08:13:37;22.20;99.90
10905;DHT22;5505;51.450;9.254;2023-08-21T08:16:24;22.20;99.90
10905;DHT22;5505;51.450;9.254;2023-08-21T08:19:10;22.50;99.90
10905;DHT22;5505;51.450;9.254;2023-08-21T08:21:58;22.80;99.90
10905;DHT22;5505;51.450;9.254;2023-08-21T08:24:45;23.20;99.90
10905;DHT22;5505;51.450;9.254;2023-08-21T08:27:32;23.50;99.90
10905;DHT22;5505;51.450;9.254;2023-08-21T08:30:19;23.30;99.90
10905;DHT22;5505;51.450;9.254;2023-08-21T08:33:06;23.20;99.90
10905;DHT22;5505;51.450;9.254;2023-08-21T08:35:53;23.10;99.90
10905;DHT22;5505;51.450;9.254;2023-08-21T08:38:41;22.90;99.90
10905;DHT22;5505;51.450;9.254;2023-08-21T08:41:33;22.70;99.90
10905;DHT22;5505;51.450;9.254;2023-08-21T08:44:22;22.60;99.90
10905;DHT22;5505;51.450;9.254;2023-08-21T08:47:11;22.40;99.90
10905;DHT22;5505;51.450;9.254;2023-08-21T08:49:58;22.20;99.90
10905;DHT22;5505;51.450;9.254;2023-08-21T08:52:45;22.00;99.90
10905;DHT22;5505;51.450;9.254;2023-08-21T08:55:33;21.90;99.90
10905;DHT22;5505;51.450;9.254;2023-08-21T08:58:20;21.80;99.90
10905;DHT22;5505;51.450;9.254;2023-08-21T09:01:07;21.90;99.90
10905;DHT22;5505;51.450;9.254;2023-08-21T09:03:56;22.00;99.90
10905;DHT22;5505;51.450;9.254;2023-08-21T09:06:43;22.00;99.90
10905;DHT22;5505;51.450;9.254;2023-08-21T09:09:37;22.20;99.90
10905;DHT22;5505;51.450;9.254;2023-08-21T09:12:25;22.50;99.90
10905;DHT22;5505;51.450;9.254;2023-08-21T09:15:12;22.40;99.90
10905;DHT22;5505;51.450;9.254;2023-08-21T09:17:59;23.00;99.90
10905;DHT22;5505;51.450;9.254;2023-08-21T09:20:46;23.30;99.90
10905;DHT22;5505;51.450;9.254;2023-08-21T09:23:33;23.60;99.90
10905;DHT22;5505;51.450;9.254;2023-08-21T09:26:22;23.80;99.90
10905;DHT22;5505;51.450;9.254;2023-08-21T09:29:10;23.90;99.90
10905;DHT22;5505;51.450;9.254;2023-08-21T09:31:57;24.20;99.90
10905;DHT22;5505;51.450;9.254;2023-08-21T09:34:44;24.30;99.90
10905;DHT22;5505;51.450;9.254;2023-08-21T09:37:31;24.40;99.90
10905;DHT22;5505;51.450;9.254;2023-08-21T09:40:18;24.60;99.90
10905;DHT22;5505;51.450;9.254;2023-08-21T09:43:05;24.60;99.90
10905;DHT22;5505;51.450;9.254;2023-08-21T09:45:54;24.80;99.90
10905;DHT22;5505;51.450;9.254;2023-08-21T09:48:42;25.00;99.90
10905;DHT22;5505;51.450;9.254;2023-08-21T09:51:31;25.00;99.90
10905;DHT22;5505;51.450;9.254;2023-08-21T09:54:18;25.10;99.90
10905;DHT22;5505;51.450;9.254;2023-08-21T09:57:05;25.20;99.90
10905;DHT22;5505;51.450;9.254;2023-08-21T09:59:53;25.30;99.90
10905;DHT22;5505;51.450;9.254;2023-08-21T10:02:42;25.50;99.90
10905;DHT22;5505;51.450;9.254;2023-08-21T10:05:32;25.70;99.90
10905;DHT22;5505;51.450;9.254;2023-08-21T10:08:23;25.80;99.90
10905;DHT22;5505;51.450;9.254;2023-08-21T10:11:10;26.20;99.90
10905;DHT22;5505;51.450;9.254;2023-08-21T10:13:57;26.00;99.90
10905;DHT22;5505;51.450;9.254;2023-08-21T10:16:44;25.80;99.90
10905;DHT22;5505;51.450;9.254;2023-08-21T10:19:33;25.70;99.90
10905;DHT22;5505;51.450;9.254;2023-08-21T10:22:36;25.70;99.90
10905;DHT22;5505;51.450;9.254;2023-08-21T10:25:24;25.50;99.90
10905;DHT22;5505;51.450;9.254;2023-08-21T10:28:12;25.40;99.90
10905;DHT22;5505;51.450;9.254;2023-08-21T10:31:25;25.20;99.90
10905;DHT22;5505;51.450;9.254;2023-08-21T10:34:13;25.20;99.90
10905;DHT22;5505;51.450;9.254;2023-08-21T10:37:06;25.30;99.90
10905;DHT22;5505;51.450;9.254;2023-08-21T10:39:56;25.50;99.90
10905;DHT22;5505;51.450;9.254;2023-08-21T10:42:43;25.70;99.90
10905;DHT22;5505;51.450;9.254;2023-08-21T10:45:30;25.80;99.90
10905;DHT22;5505;51.450;9.254;2023-08-21T10:48:17;25.80;99.90
10905;DHT22;5505;51.450;9.254;2023-08-21T10:51:05;25.80;99.90
10905;DHT22;5505;51.450;9.254;2023-08-21T10:53:54;25.70;99.90
10905;DHT22;5505;51.450;9.254;2023-08-21T10:56:40;25.70;99.90
10905;DHT22;5505;51.450;9.254;2023-08-21T10:59:27;25.70;99.90
10905;DHT22;5505;51.450;9.254;2023-08-21T11:02:14;26.00;99.90
10905;DHT22;5505;51.450;9.254;2023-08-21T11:05:01;26.20;99.90
10905;DHT22;5505;51.450;9.254;2023-08-21T11:07:48;26.20;99.90
10905;DHT22;5505;51.450;9.254;2023-08-21T11:10:37;26.20;99.90
10905;DHT22;5505;51.450;9.254;2023-08-21T11:13:25;26.30;99.90
10905;DHT22;5505;51.450;9.254;2023-08-21T11:16:11;26.30;99.90
10905;DHT22;5505;51.450;9.254;2023-08-21T11:19:03;26.40;99.90
10905;DHT22;5505;51.450;9.254;2023-08-21T11:21:51;26.40;99.90
10905;DHT22;5505;51.450;9.254;2023-08-21T11:24:43;26.30;99.90
10905;DHT22;5505;51.450;9.254;2023-08-21T11:27:31;26.20;99.90
10905;DHT22;5505;51.450;9.254;2023-08-21T11:30:18;26.20;99.90
10905;DHT22;5505;51.450;9.254;2023-08-21T11:33:06;26.20;99.90
10905;DHT22;5505;51.450;9.254;2023-08-21T11:35:53;26.30;99.90
10905;DHT22;5505;51.450;9.254;2023-08-21T11:38:40;26.40;99.90
10905;DHT22;5505;51.450;9.254;2023-08-21T11:41:26;26.50;99.90
10905;DHT22;5505;51.450;9.254;2023-08-21T11:44:16;26.50;99.90
10905;DHT22;5505;51.450;9.254;2023-08-21T11:47:02;26.60;99.90
10905;DHT22;5505;51.450;9.254;2023-08-21T11:49:50;26.50;99.90
10905;DHT22;5505;51.450;9.254;2023-08-21T11:52:38;26.50;99.90
10905;DHT22;5505;51.450;9.254;2023-08-21T11:55:25;26.60;99.90
10905;DHT22;5505;51.450;9.254;2023-08-21T11:58:11;26.50;99.90
10905;DHT22;5505;51.450;9.254;2023-08-21T12:01:04;26.60;99.90
10905;DHT22;5505;51.450;9.254;2023-08-21T12:03:51;26.50;99.90
10905;DHT22;5505;51.450;9.254;2023-08-21T12:06:44;26.40;99.90
10905;DHT22;5505;51.450;9.254;2023-08-21T12:09:31;26.50;99.90
10905;DHT22;5505;51.450;9.254;2023-08-21T12:12:18;26.60;99.90
10905;DHT22;5505;51.450;9.254;2023-08-21T12:15:06;26.50;99.90
10905;DHT22;5505;51.450;9.254;2023-08-21T12:17:54;26.40;99.90
10905;DHT22;5505;51.450;9.254;2023-08-21T12:20:41;26.40;99.90
10905;DHT22;5505;51.450;9.254;2023-08-21T12:23:28;26.40;99.90
10905;DHT22;5505;51.450;9.254;2023-08-21T12:26:14;26.50;99.90
10905;DHT22;5505;51.450;9.254;2023-08-21T12:29:06;26.60;99.90
10905;DHT22;5505;51.450;9.254;2023-08-21T12:31:52;26.50;99.90
10905;DHT22;5505;51.450;9.254;2023-08-21T12:34:40;26.40;99.90
10905;DHT22;5505;51.450;9.254;2023-08-21T12:37:27;26.40;99.90
10905;DHT22;5505;51.450;9.254;2023-08-21T12:40:14;26.40;99.90
10905;DHT22;5505;51.450;9.254;2023-08-21T12:43:01;26.50;99.90
10905;DHT22;5505;51.450;9.254;2023-08-21T12:45:48;26.60;99.90
10905;DHT22;5505;51.450;9.254;2023-08-21T12:48:35;26.70;99.90
10905;DHT22;5505;51.450;9.254;2023-08-21T12:51:23;26.90;99.90
10905;DHT22;5505;51.450;9.254;2023-08-21T12:54:09;26.90;99.90
10905;DHT22;5505;51.450;9.254;2023-08-21T12:56:56;27.00;99.90
10905;DHT22;5505;51.450;9.254;2023-08-21T12:59:43;27.10;99.90
10905;DHT22;5505;51.450;9.254;2023-08-21T13:02:30;27.20;99.90
10905;DHT22;5505;51.450;9.254;2023-08-21T13:05:16;27.20;99.90
10905;DHT22;5505;51.450;9.254;2023-08-21T13:08:05;27.30;99.90
10905;DHT22;5505;51.450;9.254;2023-08-21T13:10:52;27.30;99.90
10905;DHT22;5505;51.450;9.254;2023-08-21T13:13:39;27.30;99.90
10905;DHT22;5505;51.450;9.254;2023-08-21T13:16:25;27.30;99.90
10905;DHT22;5505;51.450;9.254;2023-08-21T13:19:12;27.20;99.90
10905;DHT22;5505;51.450;9.254;2023-08-21T13:21:59;27.10;99.90
10905;DHT22;5505;51.450;9.254;2023-08-21T13:24:47;26.90;99.90
10905;DHT22;5505;51.450;9.254;2023-08-21T13:27:34;26.80;99.90
10905;DHT22;5505;51.450;9.254;2023-08-21T13:30:20;26.80;99.90
10905;DHT22;5505;51.450;9.254;2023-08-21T13:33:07;26.80;99.90
10905;DHT22;5505;51.450;9.254;2023-08-21T13:35:54;26.80;99.90
10905;DHT22;5505;51.450;9.254;2023-08-21T13:38:41;26.90;99.90
10905;DHT22;5505;51.450;9.254;2023-08-21T13:41:29;27.00;99.90
10905;DHT22;5505;51.450;9.254;2023-08-21T13:44:16;26.90;99.90
10905;DHT22;5505;51.450;9.254;2023-08-21T13:47:03;26.80;99.90
10905;DHT22;5505;51.450;9.254;2023-08-21T13:49:50;26.90;99.90
10905;DHT22;5505;51.450;9.254;2023-08-21T13:52:37;27.00;99.90
10905;DHT22;5505;51.450;9.254;2023-08-21T13:55:25;27.00;99.90
10905;DHT22;5505;51.450;9.254;2023-08-21T13:58:13;27.10;99.90
10905;DHT22;5505;51.450;9.254;2023-08-21T14:01:00;27.10;99.90
10905;DHT22;5505;51.450;9.254;2023-08-21T14:03:47;27.20;99.90
10905;DHT22;5505;51.450;9.254;2023-08-21T14:06:33;27.30;99.90
10905;DHT22;5505;51.450;9.254;2023-08-21T14:09:20;27.50;99.90
10905;DHT22;5505;51.450;9.254;2023-08-21T14:12:07;27.50;99.90
10905;DHT22;5505;51.450;9.254;2023-08-21T14:14:55;27.50;99.90
10905;DHT22;5505;51.450;9.254;2023-08-21T14:17:42;27.50;99.90
10905;DHT22;5505;51.450;9.254;2023-08-21T14:20:29;27.40;99.90
10905;DHT22;5505;51.450;9.254;2023-08-21T14:23:16;27.30;99.90
10905;DHT22;5505;51.450;9.254;2023-08-21T14:26:02;27.20;99.90
10905;DHT22;5505;51.450;9.254;2023-08-21T14:28:49;27.20;99.90
10905;DHT22;5505;51.450;9.254;2023-08-21T14:31:38;27.20;99.90
10905;DHT22;5505;51.450;9.254;2023-08-21T14:34:24;27.10;99.90
10905;DHT22;5505;51.450;9.254;2023-08-21T14:37:11;27.10;99.90
10905;DHT22;5505;51.450;9.254;2023-08-21T14:40:00;27.10;99.90
10905;DHT22;5505;51.450;9.254;2023-08-21T14:42:52;27.10;99.90
10905;DHT22;5505;51.450;9.254;2023-08-21T14:45:38;27.20;99.90
10905;DHT22;5505;51.450;9.254;2023-08-21T14:48:27;27.30;99.90
10905;DHT22;5505;51.450;9.254;2023-08-21T14:51:13;27.20;99.90
10905;DHT22;5505;51.450;9.254;2023-08-21T14:54:00;27.30;99.90
10905;DHT22;5505;51.450;9.254;2023-08-21T14:56:47;27.30;99.90
10905;DHT22;5505;51.450;9.254;2023-08-21T14:59:34;27.40;99.90
10905;DHT22;5505;51.450;9.254;2023-08-21T15:02:20;27.30;99.90
10905;DHT22;5505;51.450;9.254;2023-08-21T15:05:09;27.20;99.90
10905;DHT22;5505;51.450;9.254;2023-08-21T15:07:57;27.10;99.90
10905;DHT22;5505;51.450;9.254;2023-08-21T15:10:46;27.10;99.90
10905;DHT22;5505;51.450;9.254;2023-08-21T15:13:33;27.10;99.90
10905;DHT22;5505;51.450;9.254;2023-08-21T15:16:20;27.20;99.90
10905;DHT22;5505;51.450;9.254;2023-08-21T15:19:07;27.10;99.90
10905;DHT22;5505;51.450;9.254;2023-08-21T15:21:55;27.10;99.90
10905;DHT22;5505;51.450;9.254;2023-08-21T15:24:42;27.20;99.90
10905;DHT22;5505;51.450;9.254;2023-08-21T15:27:28;27.60;99.90
10905;DHT22;5505;51.450;9.254;2023-08-21T15:30:15;27.30;99.90
10905;DHT22;5505;51.450;9.254;2023-08-21T15:33:03;27.20;99.90
10905;DHT22;5505;51.450;9.254;2023-08-21T15:35:49;27.10;99.90
10905;DHT22;5505;51.450;9.254;2023-08-21T15:38:37;27.10;99.90
10905;DHT22;5505;51.450;9.254;2023-08-21T15:41:24;27.00;99.90
10905;DHT22;5505;51.450;9.254;2023-08-21T15:44:11;26.90;99.90
10905;DHT22;5505;51.450;9.254;2023-08-21T15:46:58;26.80;99.90
10905;DHT22;5505;51.450;9.254;2023-08-21T15:49:46;27.00;99.90
10905;DHT22;5505;51.450;9.254;2023-08-21T15:52:33;26.60;99.90
10905;DHT22;5505;51.450;9.254;2023-08-21T15:55:24;26.50;99.90
10905;DHT22;5505;51.450;9.254;2023-08-21T15:58:11;26.60;99.90
10905;DHT22;5505;51.450;9.254;2023-08-21T16:00:58;26.50;99.90
10905;DHT22;5505;51.450;9.254;2023-08-21T16:03:46;26.50;99.90
10905;DHT22;5505;51.450;9.254;2023-08-21T16:06:32;26.60;99.90
10905;DHT22;5505;51.450;9.254;2023-08-21T16:09:19;26.60;99.90
10905;DHT22;5505;51.450;9.254;2023-08-21T16:12:07;26.50;99.90
10905;DHT22;5505;51.450;9.254;2023-08-21T16:14:54;26.50;99.90
10905;DHT22;5505;51.450;9.254;2023-08-21T16:17:41;26.50;99.90
10905;DHT22;5505;51.450;9.254;2023-08-21T16:20:28;26.70;99.90
10905;DHT22;5505;51.450;9.254;2023-08-21T16:23:15;26.50;99.90
10905;DHT22;5505;51.450;9.254;2023-08-21T16:26:01;26.50;99.90
10905;DHT22;5505;51.450;9.254;2023-08-21T16:28:49;26.50;99.90
10905;DHT22;5505;51.450;9.254;2023-08-21T16:31:36;26.50;99.90
10905;DHT22;5505;51.450;9.254;2023-08-21T16:34:23;26.50;99.90
10905;DHT22;5505;51.450;9.254;2023-08-21T16:37:10;26.60;99.90
10905;DHT22;5505;51.450;9.254;2023-08-21T16:39:57;26.50;99.90
10905;DHT22;5505;51.450;9.254;2023-08-21T16:42:44;26.50;99.90
10905;DHT22;5505;51.450;9.254;2023-08-21T16:45:32;26.50;99.90
10905;DHT22;5505;51.450;9.254;2023-08-21T16:48:20;26.50;99.90
10905;DHT22;5505;51.450;9.254;2023-08-21T16:51:07;26.50;99.90
10905;DHT22;5505;51.450;9.254;2023-08-21T16:53:54;26.50;99.90
10905;DHT22;5505;51.450;9.254;2023-08-21T16:56:42;26.40;99.90
10905;DHT22;5505;51.450;9.254;2023-08-21T16:59:28;26.40;99.90
10905;DHT22;5505;51.450;9.254;2023-08-21T17:02:16;26.40;99.90
10905;DHT22;5505;51.450;9.254;2023-08-21T17:05:07;26.20;99.90
10905;DHT22;5505;51.450;9.254;2023-08-21T17:07:53;26.20;99.90
10905;DHT22;5505;51.450;9.254;2023-08-21T17:10:40;26.20;99.90
10905;DHT22;5505;51.450;9.254;2023-08-21T17:13:27;26.30;99.90
10905;DHT22;5505;51.450;9.254;2023-08-21T17:16:14;26.30;99.90
10905;DHT22;5505;51.450;9.254;2023-08-21T17:19:02;26.30;99.90
10905;DHT22;5505;51.450;9.254;2023-08-21T17:21:49;26.30;99.90
10905;DHT22;5505;51.450;9.254;2023-08-21T17:24:36;26.20;99.90
10905;DHT22;5505;51.450;9.254;2023-08-21T17:27:22;26.20;99.90
10905;DHT22;5505;51.450;9.254;2023-08-21T17:30:10;26.10;99.90
10905;DHT22;5505;51.450;9.254;2023-08-21T17:32:57;26.10;99.90
10905;DHT22;5505;51.450;9.254;2023-08-21T17:35:45;26.10;99.90
10905;DHT22;5505;51.450;9.254;2023-08-21T17:38:32;26.00;99.90
10905;DHT22;5505;51.450;9.254;2023-08-21T17:41:19;26.00;99.90
10905;DHT22;5505;51.450;9.254;2023-08-21T17:44:05;25.90;99.90
10905;DHT22;5505;51.450;9.254;2023-08-21T17:46:53;25.90;99.90
10905;DHT22;5505;51.450;9.254;2023-08-21T17:49:40;25.90;99.90
10905;DHT22;5505;51.450;9.254;2023-08-21T17:52:28;25.70;99.90
10905;DHT22;5505;51.450;9.254;2023-08-21T17:55:15;25.50;99.90